sensor_id;sensor_type;location;lat;lon;timestamp;P1;durP1;ratioP1;P2;durP2;ratioP2
20454;SDS011;10386;54.314;10.022;2022-12-08T00:01:14;5.53;;;2.33;;
20454;SDS011;10386;54.314;10.022;2022-12-08T00:03:43;4.30;;;2.50;;
20454;SDS011;10386;54.314;10.022;2022-12-08T00:09:12;3.25;;;2.40;;
20454;SDS011;10386;54.314;10.022;2022-12-08T00:12:24;5.07;;;2.30;;
20454;SDS011;10386;54.314;10.022;2022-12-08T00:14:44;4.23;;;2.40;;
20454;SDS011;10386;54.314;10.022;2022-12-08T00:17:13;4.43;;;2.73;;
20454;SDS011;10386;54.314;10.022;2022-12-08T00:19:42;4.70;;;2.60;;
20454;SDS011;10386;54.314;10.022;2022-12-08T00:22:10;4.33;;;2.60;;
20454;SDS011;10386;54.314;10.022;2022-12-08T00:24:38;8.97;;;4.60;;
20454;SDS011;10386;54.314;10.022;2022-12-08T00:27:07;6.30;;;3.30;;
20454;SDS011;10386;54.314;10.022;2022-12-08T00:29:35;3.23;;;2.40;;
20454;SDS011;10386;54.314;10.022;2022-12-08T00:32:04;4.53;;;2.83;;
20454;SDS011;10386;54.314;10.022;2022-12-08T00:34:32;4.63;;;3.10;;
20454;SDS011;10386;54.314;10.022;2022-12-08T00:36:59;5.93;;;2.63;;
20454;SDS011;10386;54.314;10.022;2022-12-08T00:39:26;2.77;;;2.30;;
20454;SDS011;10386;54.314;10.022;2022-12-08T00:41:52;3.40;;;2.17;;
20454;SDS011;10386;54.314;10.022;2022-12-08T00:44:38;2.37;;;2.00;;
20454;SDS011;10386;54.314;10.022;2022-12-08T00:47:09;4.73;;;2.10;;
20454;SDS011;10386;54.314;10.022;2022-12-08T00:49:36;3.13;;;2.00;;
20454;SDS011;10386;54.314;10.022;2022-12-08T00:52:02;3.83;;;2.20;;
20454;SDS011;10386;54.314;10.022;2022-12-08T00:54:29;3.43;;;2.10;;
20454;SDS011;10386;54.314;10.022;2022-12-08T00:56:56;3.20;;;2.27;;
20454;SDS011;10386;54.314;10.022;2022-12-08T00:59:23;2.10;;;2.00;;
20454;SDS011;10386;54.314;10.022;2022-12-08T01:01:49;1.80;;;1.70;;
20454;SDS011;10386;54.314;10.022;2022-12-08T01:04:17;3.70;;;2.10;;
20454;SDS011;10386;54.314;10.022;2022-12-08T01:06:44;3.07;;;1.90;;
20454;SDS011;10386;54.314;10.022;2022-12-08T01:09:13;3.43;;;2.00;;
20454;SDS011;10386;54.314;10.022;2022-12-08T01:11:40;2.37;;;1.90;;
20454;SDS011;10386;54.314;10.022;2022-12-08T01:14:09;3.50;;;2.00;;
20454;SDS011;10386;54.314;10.022;2022-12-08T01:16:35;4.30;;;2.10;;
20454;SDS011;10386;54.314;10.022;2022-12-08T01:19:03;2.80;;;2.10;;
20454;SDS011;10386;54.314;10.022;2022-12-08T01:21:29;2.57;;;2.10;;
20454;SDS011;10386;54.314;10.022;2022-12-08T01:23:57;2.80;;;2.40;;
20454;SDS011;10386;54.314;10.022;2022-12-08T01:26:25;2.60;;;2.23;;
20454;SDS011;10386;54.314;10.022;2022-12-08T01:28:52;4.53;;;2.43;;
20454;SDS011;10386;54.314;10.022;2022-12-08T01:31:19;2.43;;;2.00;;
20454;SDS011;10386;54.314;10.022;2022-12-08T01:33:47;2.30;;;2.10;;
20454;SDS011;10386;54.314;10.022;2022-12-08T01:36:22;2.13;;;2.03;;
20454;SDS011;10386;54.314;10.022;2022-12-08T01:38:57;2.30;;;2.10;;
20454;SDS011;10386;54.314;10.022;2022-12-08T01:41:29;2.10;;;1.90;;
20454;SDS011;10386;54.314;10.022;2022-12-08T01:44:02;4.13;;;2.13;;
20454;SDS011;10386;54.314;10.022;2022-12-08T01:46:49;2.30;;;2.10;;
20454;SDS011;10386;54.314;10.022;2022-12-08T01:49:23;2.53;;;2.10;;
20454;SDS011;10386;54.314;10.022;2022-12-08T01:51:55;2.60;;;2.10;;
20454;SDS011;10386;54.314;10.022;2022-12-08T01:54:27;2.40;;;2.20;;
20454;SDS011;10386;54.314;10.022;2022-12-08T01:57:04;3.97;;;2.20;;
20454;SDS011;10386;54.314;10.022;2022-12-08T01:59:36;3.50;;;2.47;;
20454;SDS011;10386;54.314;10.022;2022-12-08T02:02:07;3.60;;;2.10;;
20454;SDS011;10386;54.314;10.022;2022-12-08T02:04:35;3.50;;;2.43;;
20454;SDS011;10386;54.314;10.022;2022-12-08T02:07:03;2.43;;;2.23;;
20454;SDS011;10386;54.314;10.022;2022-12-08T02:09:34;3.13;;;2.83;;
20454;SDS011;10386;54.314;10.022;2022-12-08T02:12:02;4.23;;;3.23;;
20454;SDS011;10386;54.314;10.022;2022-12-08T02:14:29;4.07;;;2.93;;
20454;SDS011;10386;54.314;10.022;2022-12-08T02:17:02;3.63;;;3.03;;
20454;SDS011;10386;54.314;10.022;2022-12-08T02:43:43;1.90;;;1.80;;
20454;SDS011;10386;54.314;10.022;2022-12-08T02:46:18;1.77;;;1.67;;
20454;SDS011;10386;54.314;10.022;2022-12-08T02:48:49;1.53;;;1.50;;
20454;SDS011;10386;54.314;10.022;2022-12-08T02:51:17;1.80;;;1.70;;
20454;SDS011;10386;54.314;10.022;2022-12-08T02:53:45;2.63;;;1.60;;
20454;SDS011;10386;54.314;10.022;2022-12-08T03:01:52;1.30;;;1.30;;
20454;SDS011;10386;54.314;10.022;2022-12-08T03:04:38;1.60;;;1.50;;
20454;SDS011;10386;54.314;10.022;2022-12-08T03:07:26;2.10;;;1.90;;
20454;SDS011;10386;54.314;10.022;2022-12-08T03:10:02;2.10;;;1.90;;
20454;SDS011;10386;54.314;10.022;2022-12-08T03:12:40;1.83;;;1.73;;
20454;SDS011;10386;54.314;10.022;2022-12-08T03:15:12;3.43;;;1.60;;
20454;SDS011;10386;54.314;10.022;2022-12-08T03:17:43;3.40;;;1.40;;
20454;SDS011;10386;54.314;10.022;2022-12-08T03:20:15;1.80;;;1.70;;
20454;SDS011;10386;54.314;10.022;2022-12-08T03:22:46;1.50;;;1.40;;
20454;SDS011;10386;54.314;10.022;2022-12-08T03:25:16;2.10;;;1.33;;
20454;SDS011;10386;54.314;10.022;2022-12-08T03:27:47;2.47;;;1.57;;
20454;SDS011;10386;54.314;10.022;2022-12-08T03:30:15;4.83;;;2.20;;
20454;SDS011;10386;54.314;10.022;2022-12-08T03:32:53;1.70;;;1.60;;
20454;SDS011;10386;54.314;10.022;2022-12-08T03:35:28;2.17;;;1.50;;
20454;SDS011;10386;54.314;10.022;2022-12-08T03:38:04;3.13;;;1.73;;
20454;SDS011;10386;54.314;10.022;2022-12-08T03:40:36;1.80;;;1.70;;
20454;SDS011;10386;54.314;10.022;2022-12-08T03:43:04;1.97;;;1.80;;
20454;SDS011;10386;54.314;10.022;2022-12-08T03:45:30;1.77;;;1.67;;
20454;SDS011;10386;54.314;10.022;2022-12-08T03:47:57;1.60;;;1.50;;
20454;SDS011;10386;54.314;10.022;2022-12-08T03:50:24;2.63;;;1.70;;
20454;SDS011;10386;54.314;10.022;2022-12-08T03:52:51;2.20;;;2.00;;
20454;SDS011;10386;54.314;10.022;2022-12-08T03:55:20;2.67;;;1.67;;
20454;SDS011;10386;54.314;10.022;2022-12-08T03:57:47;2.20;;;2.07;;
20454;SDS011;10386;54.314;10.022;2022-12-08T04:00:14;2.20;;;1.87;;
20454;SDS011;10386;54.314;10.022;2022-12-08T04:02:42;2.50;;;2.10;;
20454;SDS011;10386;54.314;10.022;2022-12-08T04:05:09;2.20;;;2.00;;
20454;SDS011;10386;54.314;10.022;2022-12-08T04:07:35;2.03;;;1.90;;
20454;SDS011;10386;54.314;10.022;2022-12-08T04:10:03;3.00;;;2.20;;
20454;SDS011;10386;54.314;10.022;2022-12-08T04:12:30;2.13;;;2.03;;
20454;SDS011;10386;54.314;10.022;2022-12-08T04:14:57;2.23;;;1.93;;
20454;SDS011;10386;54.314;10.022;2022-12-08T04:17:24;2.30;;;2.20;;
20454;SDS011;10386;54.314;10.022;2022-12-08T04:19:51;3.93;;;2.40;;
20454;SDS011;10386;54.314;10.022;2022-12-08T04:22:18;2.77;;;2.30;;
20454;SDS011;10386;54.314;10.022;2022-12-08T04:24:44;4.17;;;2.80;;
20454;SDS011;10386;54.314;10.022;2022-12-08T04:27:11;4.03;;;3.10;;
20454;SDS011;10386;54.314;10.022;2022-12-08T04:29:38;3.20;;;2.90;;
20454;SDS011;10386;54.314;10.022;2022-12-08T04:32:05;2.57;;;2.40;;
20454;SDS011;10386;54.314;10.022;2022-12-08T04:34:31;3.17;;;2.43;;
20454;SDS011;10386;54.314;10.022;2022-12-08T04:36:58;2.47;;;2.27;;
20454;SDS011;10386;54.314;10.022;2022-12-08T04:39:25;2.47;;;2.27;;
20454;SDS011;10386;54.314;10.022;2022-12-08T04:41:52;4.33;;;2.30;;
20454;SDS011;10386;54.314;10.022;2022-12-08T04:44:19;4.60;;;2.50;;
20454;SDS011;10386;54.314;10.022;2022-12-08T04:46:45;2.93;;;2.73;;
20454;SDS011;10386;54.314;10.022;2022-12-08T04:49:12;2.70;;;2.50;;
20454;SDS011;10386;54.314;10.022;2022-12-08T04:51:39;2.73;;;2.53;;
20454;SDS011;10386;54.314;10.022;2022-12-08T04:54:06;7.63;;;2.80;;
20454;SDS011;10386;54.314;10.022;2022-12-08T04:56:33;6.80;;;2.70;;
20454;SDS011;10386;54.314;10.022;2022-12-08T04:59:00;5.67;;;2.70;;
20454;SDS011;10386;54.314;10.022;2022-12-08T05:01:26;3.93;;;2.70;;
20454;SDS011;10386;54.314;10.022;2022-12-08T05:03:53;3.93;;;2.93;;
20454;SDS011;10386;54.314;10.022;2022-12-08T05:06:20;4.18;;;3.00;;
20454;SDS011;10386;54.314;10.022;2022-12-08T05:08:47;4.23;;;3.00;;
20454;SDS011;10386;54.314;10.022;2022-12-08T05:11:14;4.33;;;3.13;;
20454;SDS011;10386;54.314;10.022;2022-12-08T05:13:41;4.13;;;3.30;;
20454;SDS011;10386;54.314;10.022;2022-12-08T05:16:12;6.37;;;3.20;;
20454;SDS011;10386;54.314;10.022;2022-12-08T05:18:40;5.40;;;3.20;;
20454;SDS011;10386;54.314;10.022;2022-12-08T05:21:07;5.13;;;3.30;;
20454;SDS011;10386;54.314;10.022;2022-12-08T05:23:35;6.63;;;3.67;;
20454;SDS011;10386;54.314;10.022;2022-12-08T05:26:02;6.67;;;3.60;;
20454;SDS011;10386;54.314;10.022;2022-12-08T05:28:28;7.13;;;3.90;;
20454;SDS011;10386;54.314;10.022;2022-12-08T05:31:11;5.80;;;4.20;;
20454;SDS011;10386;54.314;10.022;2022-12-08T05:33:39;9.27;;;3.90;;
20454;SDS011;10386;54.314;10.022;2022-12-08T05:36:07;6.00;;;4.33;;
20454;SDS011;10386;54.314;10.022;2022-12-08T05:38:35;5.07;;;3.87;;
20454;SDS011;10386;54.314;10.022;2022-12-08T05:41:01;7.17;;;5.10;;
20454;SDS011;10386;54.314;10.022;2022-12-08T05:43:28;7.10;;;4.33;;
20454;SDS011;10386;54.314;10.022;2022-12-08T05:45:56;9.63;;;5.83;;
20454;SDS011;10386;54.314;10.022;2022-12-08T05:48:27;14.30;;;6.60;;
20454;SDS011;10386;54.314;10.022;2022-12-08T05:50:54;9.40;;;5.70;;
20454;SDS011;10386;54.314;10.022;2022-12-08T05:53:22;10.40;;;5.57;;
20454;SDS011;10386;54.314;10.022;2022-12-08T05:55:49;7.90;;;5.43;;
20454;SDS011;10386;54.314;10.022;2022-12-08T05:58:17;9.50;;;6.03;;
20454;SDS011;10386;54.314;10.022;2022-12-08T06:00:45;11.57;;;5.70;;
20454;SDS011;10386;54.314;10.022;2022-12-08T06:03:14;8.53;;;6.07;;
20454;SDS011;10386;54.314;10.022;2022-12-08T06:05:44;11.90;;;6.20;;
20454;SDS011;10386;54.314;10.022;2022-12-08T06:08:12;8.17;;;5.97;;
20454;SDS011;10386;54.314;10.022;2022-12-08T06:10:40;8.53;;;5.50;;
20454;SDS011;10386;54.314;10.022;2022-12-08T06:13:09;12.63;;;6.40;;
20454;SDS011;10386;54.314;10.022;2022-12-08T06:15:37;11.10;;;6.77;;
20454;SDS011;10386;54.314;10.022;2022-12-08T06:18:04;12.17;;;6.60;;
20454;SDS011;10386;54.314;10.022;2022-12-08T06:20:32;15.03;;;7.83;;
20454;SDS011;10386;54.314;10.022;2022-12-08T06:23:00;14.10;;;7.93;;
20454;SDS011;10386;54.314;10.022;2022-12-08T06:25:36;14.33;;;7.53;;
20454;SDS011;10386;54.314;10.022;2022-12-08T06:28:08;13.60;;;7.97;;
20454;SDS011;10386;54.314;10.022;2022-12-08T06:30:36;14.07;;;7.40;;
20454;SDS011;10386;54.314;10.022;2022-12-08T06:33:05;13.90;;;7.43;;
20454;SDS011;10386;54.314;10.022;2022-12-08T06:35:33;15.70;;;7.63;;
20454;SDS011;10386;54.314;10.022;2022-12-08T06:38:01;17.63;;;8.23;;
20454;SDS011;10386;54.314;10.022;2022-12-08T06:40:28;18.60;;;7.90;;
20454;SDS011;10386;54.314;10.022;2022-12-08T06:42:55;13.47;;;7.73;;
20454;SDS011;10386;54.314;10.022;2022-12-08T06:45:22;16.40;;;8.20;;
20454;SDS011;10386;54.314;10.022;2022-12-08T06:47:51;14.63;;;7.70;;
20454;SDS011;10386;54.314;10.022;2022-12-08T06:50:20;20.53;;;7.80;;
20454;SDS011;10386;54.314;10.022;2022-12-08T06:52:49;20.80;;;8.00;;
20454;SDS011;10386;54.314;10.022;2022-12-08T06:55:29;17.90;;;7.63;;
20454;SDS011;10386;54.314;10.022;2022-12-08T06:58:17;17.87;;;7.60;;
20454;SDS011;10386;54.314;10.022;2022-12-08T07:00:45;19.77;;;8.50;;
20454;SDS011;10386;54.314;10.022;2022-12-08T07:03:13;17.37;;;8.80;;
20454;SDS011;10386;54.314;10.022;2022-12-08T07:05:40;17.63;;;8.03;;
20454;SDS011;10386;54.314;10.022;2022-12-08T07:08:07;18.97;;;8.40;;
20454;SDS011;10386;54.314;10.022;2022-12-08T07:10:35;16.40;;;8.53;;
20454;SDS011;10386;54.314;10.022;2022-12-08T07:13:02;55.80;;;19.87;;
20454;SDS011;10386;54.314;10.022;2022-12-08T07:15:29;35.43;;;14.23;;
20454;SDS011;10386;54.314;10.022;2022-12-08T07:17:56;35.40;;;14.90;;
20454;SDS011;10386;54.314;10.022;2022-12-08T07:20:25;39.53;;;15.03;;
20454;SDS011;10386;54.314;10.022;2022-12-08T07:22:53;39.80;;;14.37;;
20454;SDS011;10386;54.314;10.022;2022-12-08T07:25:20;34.77;;;14.30;;
20454;SDS011;10386;54.314;10.022;2022-12-08T07:27:47;23.83;;;9.70;;
20454;SDS011;10386;54.314;10.022;2022-12-08T07:30:16;19.70;;;8.40;;
20454;SDS011;10386;54.314;10.022;2022-12-08T07:32:44;14.13;;;7.63;;
20454;SDS011;10386;54.314;10.022;2022-12-08T07:35:11;15.93;;;7.53;;
20454;SDS011;10386;54.314;10.022;2022-12-08T07:37:38;24.53;;;9.03;;
20454;SDS011;10386;54.314;10.022;2022-12-08T07:40:07;15.63;;;7.83;;
20454;SDS011;10386;54.314;10.022;2022-12-08T07:42:34;15.23;;;7.80;;
20454;SDS011;10386;54.314;10.022;2022-12-08T07:45:04;18.63;;;7.80;;
20454;SDS011;10386;54.314;10.022;2022-12-08T07:47:31;16.83;;;7.50;;
20454;SDS011;10386;54.314;10.022;2022-12-08T07:49:58;19.77;;;8.53;;
20454;SDS011;10386;54.314;10.022;2022-12-08T07:52:24;17.70;;;7.87;;
20454;SDS011;10386;54.314;10.022;2022-12-08T07:54:53;17.83;;;7.53;;
20454;SDS011;10386;54.314;10.022;2022-12-08T07:57:20;19.23;;;8.37;;
20454;SDS011;10386;54.314;10.022;2022-12-08T07:59:49;19.67;;;8.30;;
20454;SDS011;10386;54.314;10.022;2022-12-08T08:02:18;23.50;;;9.50;;
20454;SDS011;10386;54.314;10.022;2022-12-08T08:04:50;25.13;;;10.97;;
20454;SDS011;10386;54.314;10.022;2022-12-08T08:07:17;24.83;;;11.23;;
20454;SDS011;10386;54.314;10.022;2022-12-08T08:09:44;29.57;;;11.20;;
20454;SDS011;10386;54.314;10.022;2022-12-08T08:12:11;23.83;;;10.93;;
20454;SDS011;10386;54.314;10.022;2022-12-08T08:15:01;25.37;;;9.90;;
20454;SDS011;10386;54.314;10.022;2022-12-08T08:17:38;24.53;;;9.00;;
20454;SDS011;10386;54.314;10.022;2022-12-08T08:20:08;23.33;;;9.40;;
20454;SDS011;10386;54.314;10.022;2022-12-08T08:22:35;20.27;;;9.43;;
20454;SDS011;10386;54.314;10.022;2022-12-08T08:25:02;21.23;;;10.03;;
20454;SDS011;10386;54.314;10.022;2022-12-08T08:27:29;17.87;;;9.10;;
20454;SDS011;10386;54.314;10.022;2022-12-08T08:29:56;20.93;;;9.40;;
20454;SDS011;10386;54.314;10.022;2022-12-08T08:32:23;18.77;;;9.48;;
20454;SDS011;10386;54.314;10.022;2022-12-08T08:34:50;22.23;;;9.80;;
20454;SDS011;10386;54.314;10.022;2022-12-08T08:37:17;20.73;;;9.47;;
20454;SDS011;10386;54.314;10.022;2022-12-08T08:39:44;19.27;;;9.27;;
20454;SDS011;10386;54.314;10.022;2022-12-08T08:42:11;19.37;;;8.90;;
20454;SDS011;10386;54.314;10.022;2022-12-08T08:44:37;20.57;;;10.37;;
20454;SDS011;10386;54.314;10.022;2022-12-08T08:47:04;17.67;;;8.70;;
20454;SDS011;10386;54.314;10.022;2022-12-08T08:49:31;18.80;;;9.43;;
20454;SDS011;10386;54.314;10.022;2022-12-08T08:51:58;20.83;;;9.80;;
20454;SDS011;10386;54.314;10.022;2022-12-08T08:54:24;19.70;;;9.33;;
20454;SDS011;10386;54.314;10.022;2022-12-08T08:56:53;21.77;;;10.40;;
20454;SDS011;10386;54.314;10.022;2022-12-08T08:59:20;17.03;;;8.60;;
20454;SDS011;10386;54.314;10.022;2022-12-08T09:01:47;18.93;;;9.07;;
20454;SDS011;10386;54.314;10.022;2022-12-08T09:04:14;33.07;;;17.57;;
20454;SDS011;10386;54.314;10.022;2022-12-08T09:06:41;20.83;;;13.10;;
20454;SDS011;10386;54.314;10.022;2022-12-08T09:09:09;21.33;;;10.07;;
20454;SDS011;10386;54.314;10.022;2022-12-08T09:11:36;19.80;;;10.47;;
20454;SDS011;10386;54.314;10.022;2022-12-08T09:14:03;14.90;;;8.73;;
20454;SDS011;10386;54.314;10.022;2022-12-08T09:16:33;19.57;;;9.10;;
20454;SDS011;10386;54.314;10.022;2022-12-08T09:19:07;18.80;;;9.00;;
20454;SDS011;10386;54.314;10.022;2022-12-08T09:21:34;14.87;;;8.37;;
20454;SDS011;10386;54.314;10.022;2022-12-08T09:24:01;15.97;;;8.27;;
20454;SDS011;10386;54.314;10.022;2022-12-08T09:26:28;16.43;;;9.20;;
20454;SDS011;10386;54.314;10.022;2022-12-08T09:28:55;14.60;;;8.03;;
20454;SDS011;10386;54.314;10.022;2022-12-08T09:31:23;15.50;;;8.20;;
20454;SDS011;10386;54.314;10.022;2022-12-08T09:33:50;22.40;;;10.70;;
20454;SDS011;10386;54.314;10.022;2022-12-08T09:36:18;20.40;;;10.13;;
20454;SDS011;10386;54.314;10.022;2022-12-08T09:38:45;16.37;;;7.77;;
20454;SDS011;10386;54.314;10.022;2022-12-08T09:46:51;15.03;;;8.67;;
20454;SDS011;10386;54.314;10.022;2022-12-08T09:49:20;16.97;;;9.37;;
20454;SDS011;10386;54.314;10.022;2022-12-08T09:51:51;17.77;;;9.70;;
20454;SDS011;10386;54.314;10.022;2022-12-08T09:54:19;16.13;;;9.70;;
20454;SDS011;10386;54.314;10.022;2022-12-08T09:56:50;16.47;;;9.30;;
20454;SDS011;10386;54.314;10.022;2022-12-08T10:01:51;16.33;;;7.70;;
20454;SDS011;10386;54.314;10.022;2022-12-08T10:04:31;15.60;;;8.03;;
20454;SDS011;10386;54.314;10.022;2022-12-08T10:18:24;13.43;;;7.60;;
20454;SDS011;10386;54.314;10.022;2022-12-08T10:20:56;15.80;;;8.50;;
20454;SDS011;10386;54.314;10.022;2022-12-08T10:23:32;16.13;;;9.37;;
20454;SDS011;10386;54.314;10.022;2022-12-08T10:26:03;25.57;;;11.47;;
20454;SDS011;10386;54.314;10.022;2022-12-08T10:28:32;23.07;;;11.20;;
20454;SDS011;10386;54.314;10.022;2022-12-08T10:31:04;26.83;;;12.30;;
20454;SDS011;10386;54.314;10.022;2022-12-08T10:33:31;22.57;;;10.67;;
20454;SDS011;10386;54.314;10.022;2022-12-08T10:36:01;17.43;;;8.10;;
20454;SDS011;10386;54.314;10.022;2022-12-08T10:38:31;56.83;;;21.17;;
20454;SDS011;10386;54.314;10.022;2022-12-08T10:46:19;20.73;;;8.53;;
20454;SDS011;10386;54.314;10.022;2022-12-08T10:48:47;13.77;;;7.50;;
20454;SDS011;10386;54.314;10.022;2022-12-08T10:51:28;17.07;;;8.20;;
20454;SDS011;10386;54.314;10.022;2022-12-08T10:53:58;16.43;;;7.73;;
20454;SDS011;10386;54.314;10.022;2022-12-08T10:56:29;15.63;;;7.53;;
20454;SDS011;10386;54.314;10.022;2022-12-08T10:59:16;16.53;;;7.53;;
20454;SDS011;10386;54.314;10.022;2022-12-08T11:01:45;17.33;;;8.80;;
20454;SDS011;10386;54.314;10.022;2022-12-08T11:04:16;20.03;;;9.43;;
20454;SDS011;10386;54.314;10.022;2022-12-08T11:06:45;18.83;;;8.63;;
20454;SDS011;10386;54.314;10.022;2022-12-08T11:11:45;18.37;;;8.07;;
20454;SDS011;10386;54.314;10.022;2022-12-08T11:14:28;16.83;;;8.03;;
20454;SDS011;10386;54.314;10.022;2022-12-08T11:17:34;17.00;;;7.90;;
20454;SDS011;10386;54.314;10.022;2022-12-08T11:22:36;23.47;;;10.37;;
20454;SDS011;10386;54.314;10.022;2022-12-08T11:27:34;31.27;;;13.03;;
20454;SDS011;10386;54.314;10.022;2022-12-08T11:30:05;19.53;;;9.00;;
20454;SDS011;10386;54.314;10.022;2022-12-08T11:32:42;20.43;;;8.77;;
20454;SDS011;10386;54.314;10.022;2022-12-08T11:35:26;19.40;;;7.97;;
20454;SDS011;10386;54.314;10.022;2022-12-08T11:38:04;18.77;;;8.83;;
20454;SDS011;10386;54.314;10.022;2022-12-08T11:40:47;22.00;;;8.57;;
20454;SDS011;10386;54.314;10.022;2022-12-08T11:43:34;17.13;;;7.53;;
20454;SDS011;10386;54.314;10.022;2022-12-08T11:46:04;19.33;;;8.37;;
20454;SDS011;10386;54.314;10.022;2022-12-08T11:48:45;16.97;;;7.77;;
20454;SDS011;10386;54.314;10.022;2022-12-08T11:54:10;16.67;;;8.20;;
20454;SDS011;10386;54.314;10.022;2022-12-08T11:56:45;15.10;;;7.37;;
20454;SDS011;10386;54.314;10.022;2022-12-08T11:59:28;19.47;;;8.20;;
20454;SDS011;10386;54.314;10.022;2022-12-08T12:02:12;20.87;;;8.30;;
20454;SDS011;10386;54.314;10.022;2022-12-08T12:04:50;15.37;;;7.03;;
20454;SDS011;10386;54.314;10.022;2022-12-08T12:21:04;12.13;;;5.83;;
20454;SDS011;10386;54.314;10.022;2022-12-08T12:23:39;12.07;;;6.03;;
20454;SDS011;10386;54.314;10.022;2022-12-08T12:29:18;12.50;;;6.27;;
20454;SDS011;10386;54.314;10.022;2022-12-08T12:31:51;15.03;;;6.10;;
20454;SDS011;10386;54.314;10.022;2022-12-08T12:37:37;28.20;;;7.17;;
20454;SDS011;10386;54.314;10.022;2022-12-08T12:40:25;15.53;;;5.97;;
20454;SDS011;10386;54.314;10.022;2022-12-08T12:45:29;13.00;;;5.97;;
20454;SDS011;10386;54.314;10.022;2022-12-08T12:53:02;11.73;;;5.57;;
20454;SDS011;10386;54.314;10.022;2022-12-08T13:06:34;48.80;;;6.60;;
20454;SDS011;10386;54.314;10.022;2022-12-08T13:12:10;45.57;;;5.93;;
20454;SDS011;10386;54.314;10.022;2022-12-08T13:14:45;18.57;;;5.53;;
20454;SDS011;10386;54.314;10.022;2022-12-08T13:17:22;33.50;;;6.10;;
20454;SDS011;10386;54.314;10.022;2022-12-08T13:19:54;27.73;;;6.40;;
20454;SDS011;10386;54.314;10.022;2022-12-08T13:28:28;36.97;;;6.17;;
20454;SDS011;10386;54.314;10.022;2022-12-08T13:33:30;43.53;;;6.30;;
20454;SDS011;10386;54.314;10.022;2022-12-08T13:38:30;41.87;;;6.47;;
20454;SDS011;10386;54.314;10.022;2022-12-08T13:40:59;45.80;;;5.63;;
20454;SDS011;10386;54.314;10.022;2022-12-08T13:43:32;40.83;;;5.40;;
20454;SDS011;10386;54.314;10.022;2022-12-08T13:46:55;26.73;;;5.10;;
20454;SDS011;10386;54.314;10.022;2022-12-08T13:49:41;22.07;;;4.57;;
20454;SDS011;10386;54.314;10.022;2022-12-08T13:52:43;31.23;;;5.37;;
20454;SDS011;10386;54.314;10.022;2022-12-08T13:55:39;9.27;;;4.17;;
20454;SDS011;10386;54.314;10.022;2022-12-08T13:58:38;22.13;;;6.23;;
20454;SDS011;10386;54.314;10.022;2022-12-08T14:01:16;33.03;;;5.00;;
20454;SDS011;10386;54.314;10.022;2022-12-08T14:06:36;51.03;;;11.27;;
20454;SDS011;10386;54.314;10.022;2022-12-08T14:09:05;61.83;;;7.23;;
20454;SDS011;10386;54.314;10.022;2022-12-08T14:11:37;47.73;;;10.57;;
20454;SDS011;10386;54.314;10.022;2022-12-08T14:14:07;46.20;;;7.37;;
20454;SDS011;10386;54.314;10.022;2022-12-08T14:17:01;52.23;;;6.23;;
20454;SDS011;10386;54.314;10.022;2022-12-08T14:19:31;34.97;;;6.50;;
20454;SDS011;10386;54.314;10.022;2022-12-08T14:24:33;27.63;;;4.97;;
20454;SDS011;10386;54.314;10.022;2022-12-08T14:27:01;44.13;;;5.00;;
20454;SDS011;10386;54.314;10.022;2022-12-08T14:31:56;61.40;;;6.73;;
20454;SDS011;10386;54.314;10.022;2022-12-08T14:34:23;77.47;;;8.17;;
20454;SDS011;10386;54.314;10.022;2022-12-08T14:36:50;29.27;;;5.13;;
20454;SDS011;10386;54.314;10.022;2022-12-08T14:39:19;112.90;;;7.87;;
20454;SDS011;10386;54.314;10.022;2022-12-08T14:41:59;106.57;;;9.80;;
20454;SDS011;10386;54.314;10.022;2022-12-08T14:44:28;17.67;;;5.03;;
20454;SDS011;10386;54.314;10.022;2022-12-08T14:47:07;68.07;;;7.53;;
20454;SDS011;10386;54.314;10.022;2022-12-08T14:49:38;134.87;;;10.87;;
20454;SDS011;10386;54.314;10.022;2022-12-08T14:52:12;50.93;;;6.20;;
20454;SDS011;10386;54.314;10.022;2022-12-08T14:54:39;171.73;;;12.77;;
20454;SDS011;10386;54.314;10.022;2022-12-08T14:57:09;86.03;;;8.27;;
20454;SDS011;10386;54.314;10.022;2022-12-08T14:59:38;49.27;;;6.40;;
20454;SDS011;10386;54.314;10.022;2022-12-08T15:03:04;34.63;;;5.70;;
20454;SDS011;10386;54.314;10.022;2022-12-08T15:12:03;75.57;;;8.80;;
20454;SDS011;10386;54.314;10.022;2022-12-08T15:14:33;58.93;;;8.23;;
20454;SDS011;10386;54.314;10.022;2022-12-08T15:19:55;56.23;;;7.53;;
20454;SDS011;10386;54.314;10.022;2022-12-08T15:22:23;171.67;;;16.17;;
20454;SDS011;10386;54.314;10.022;2022-12-08T15:24:52;57.93;;;6.97;;
20454;SDS011;10386;54.314;10.022;2022-12-08T15:27:20;66.40;;;8.20;;
20454;SDS011;10386;54.314;10.022;2022-12-08T15:29:48;68.27;;;7.23;;
20454;SDS011;10386;54.314;10.022;2022-12-08T15:32:16;71.97;;;7.63;;
20454;SDS011;10386;54.314;10.022;2022-12-08T15:34:45;50.40;;;7.30;;
20454;SDS011;10386;54.314;10.022;2022-12-08T15:37:17;59.93;;;7.40;;
20454;SDS011;10386;54.314;10.022;2022-12-08T15:39:47;56.50;;;9.30;;
20454;SDS011;10386;54.314;10.022;2022-12-08T15:42:14;51.77;;;9.07;;
20454;SDS011;10386;54.314;10.022;2022-12-08T15:44:41;59.70;;;9.63;;
20454;SDS011;10386;54.314;10.022;2022-12-08T15:47:14;152.90;;;10.93;;
20454;SDS011;10386;54.314;10.022;2022-12-08T15:49:45;34.70;;;7.23;;
20454;SDS011;10386;54.314;10.022;2022-12-08T15:52:14;60.23;;;9.83;;
20454;SDS011;10386;54.314;10.022;2022-12-08T15:54:44;33.53;;;6.93;;
20454;SDS011;10386;54.314;10.022;2022-12-08T15:57:25;40.23;;;6.67;;
20454;SDS011;10386;54.314;10.022;2022-12-08T16:00:27;50.50;;;7.10;;
20454;SDS011;10386;54.314;10.022;2022-12-08T16:03:27;85.57;;;8.20;;
20454;SDS011;10386;54.314;10.022;2022-12-08T16:06:16;46.17;;;6.43;;
20454;SDS011;10386;54.314;10.022;2022-12-08T16:09:07;47.00;;;7.37;;
20454;SDS011;10386;54.314;10.022;2022-12-08T16:11:50;59.33;;;7.20;;
20454;SDS011;10386;54.314;10.022;2022-12-08T16:14:36;27.57;;;6.80;;
20454;SDS011;10386;54.314;10.022;2022-12-08T16:17:24;35.97;;;8.20;;
20454;SDS011;10386;54.314;10.022;2022-12-08T16:19:51;84.60;;;9.97;;
20454;SDS011;10386;54.314;10.022;2022-12-08T16:22:20;92.03;;;10.00;;
20454;SDS011;10386;54.314;10.022;2022-12-08T16:25:10;28.63;;;8.30;;
20454;SDS011;10386;54.314;10.022;2022-12-08T16:27:48;55.20;;;7.93;;
20454;SDS011;10386;54.314;10.022;2022-12-08T16:30:27;30.90;;;6.23;;
20454;SDS011;10386;54.314;10.022;2022-12-08T16:32:53;67.40;;;7.60;;
20454;SDS011;10386;54.314;10.022;2022-12-08T16:35:20;56.00;;;7.07;;
20454;SDS011;10386;54.314;10.022;2022-12-08T16:37:47;58.07;;;7.60;;
20454;SDS011;10386;54.314;10.022;2022-12-08T16:40:14;69.33;;;9.87;;
20454;SDS011;10386;54.314;10.022;2022-12-08T16:42:40;49.47;;;7.20;;
20454;SDS011;10386;54.314;10.022;2022-12-08T16:45:20;84.07;;;8.60;;
20454;SDS011;10386;54.314;10.022;2022-12-08T16:47:49;40.13;;;10.93;;
20454;SDS011;10386;54.314;10.022;2022-12-08T16:50:22;22.13;;;9.10;;
20454;SDS011;10386;54.314;10.022;2022-12-08T16:53:01;15.13;;;6.53;;
20454;SDS011;10386;54.314;10.022;2022-12-08T16:55:30;50.37;;;9.80;;
20454;SDS011;10386;54.314;10.022;2022-12-08T16:57:57;22.30;;;7.30;;
20454;SDS011;10386;54.314;10.022;2022-12-08T17:00:25;50.03;;;7.47;;
20454;SDS011;10386;54.314;10.022;2022-12-08T17:02:54;44.27;;;8.90;;
20454;SDS011;10386;54.314;10.022;2022-12-08T17:05:22;50.27;;;11.40;;
20454;SDS011;10386;54.314;10.022;2022-12-08T17:07:50;33.50;;;7.57;;